Iowa Falls, Iowa
Current Conditions -  °F | °C
As of 4:55 AM on Friday 31 Oct 2014 (Local Time) from KIFA Reporting Station
Clear Clear  
Wind Chill: 18°   Ceiling: Unl
Heat Index: 29°   Visibility: 10mi
Dew Point: 16°   Wind: 16mph
Humidity: 57%   Direction: 340°NNW
Pressure: 30.4"   Gusts: 24mph
Location:  42.52°N, 93.26°W
Report Text: KIFA 310955Z AUTO 34014G21KT 10SM CLR M01/M09 A3040 RMK AO2 T10141089
Loading
Personal Weather Stations






























Interactive Weather Map New forecast layout! Learn more

10-Day Weather Forecast

Advertisements
Track Severe Weather on mobile